sensor_id;sensor_type;location;lat;lon;timestamp;P1;durP1;ratioP1;P2;durP2;ratioP2
19285;SDS011;9776;50.798;6.430;2022-09-02T00:00:40;1.08;;;1.08;;
19285;SDS011;9776;50.798;6.430;2022-09-02T00:03:07;1.20;;;1.15;;
19285;SDS011;9776;50.798;6.430;2022-09-02T00:05:33;1.10;;;1.10;;
19285;SDS011;9776;50.798;6.430;2022-09-02T00:08:02;1.02;;;1.02;;
19285;SDS011;9776;50.798;6.430;2022-09-02T00:10:29;1.05;;;1.05;;
19285;SDS011;9776;50.798;6.430;2022-09-02T00:12:57;1.20;;;1.20;;
19285;SDS011;9776;50.798;6.430;2022-09-02T00:15:23;1.20;;;1.08;;
19285;SDS011;9776;50.798;6.430;2022-09-02T00:17:51;1.15;;;1.15;;
19285;SDS011;9776;50.798;6.430;2022-09-02T00:20:18;1.10;;;1.10;;
19285;SDS011;9776;50.798;6.430;2022-09-02T00:22:45;1.25;;;1.25;;
19285;SDS011;9776;50.798;6.430;2022-09-02T00:25:13;1.00;;;1.00;;
19285;SDS011;9776;50.798;6.430;2022-09-02T00:27:40;1.23;;;1.23;;
19285;SDS011;9776;50.798;6.430;2022-09-02T00:30:07;1.20;;;1.20;;
19285;SDS011;9776;50.798;6.430;2022-09-02T00:32:35;1.08;;;1.08;;
19285;SDS011;9776;50.798;6.430;2022-09-02T00:35:02;1.20;;;1.10;;
19285;SDS011;9776;50.798;6.430;2022-09-02T00:37:29;1.10;;;1.10;;
19285;SDS011;9776;50.798;6.430;2022-09-02T00:39:56;1.02;;;1.02;;
19285;SDS011;9776;50.798;6.430;2022-09-02T00:42:25;0.93;;;0.93;;
19285;SDS011;9776;50.798;6.430;2022-09-02T00:44:52;1.10;;;1.10;;
19285;SDS011;9776;50.798;6.430;2022-09-02T00:47:19;2.25;;;0.90;;
19285;SDS011;9776;50.798;6.430;2022-09-02T00:49:47;1.10;;;1.00;;
19285;SDS011;9776;50.798;6.430;2022-09-02T00:52:18;0.90;;;0.90;;
19285;SDS011;9776;50.798;6.430;2022-09-02T00:54:49;1.05;;;1.05;;
19285;SDS011;9776;50.798;6.430;2022-09-02T00:57:20;1.27;;;1.17;;
19285;SDS011;9776;50.798;6.430;2022-09-02T00:59:55;1.00;;;1.00;;
19285;SDS011;9776;50.798;6.430;2022-09-02T01:02:28;1.20;;;1.20;;
19285;SDS011;9776;50.798;6.430;2022-09-02T01:04:56;0.93;;;0.93;;
19285;SDS011;9776;50.798;6.430;2022-09-02T01:07:24;1.05;;;1.05;;
19285;SDS011;9776;50.798;6.430;2022-09-02T01:09:54;1.00;;;0.95;;
19285;SDS011;9776;50.798;6.430;2022-09-02T01:12:21;1.20;;;1.20;;
19285;SDS011;9776;50.798;6.430;2022-09-02T01:14:48;1.20;;;1.20;;
19285;SDS011;9776;50.798;6.430;2022-09-02T01:17:16;1.20;;;1.20;;
19285;SDS011;9776;50.798;6.430;2022-09-02T01:19:43;1.33;;;1.23;;
19285;SDS011;9776;50.798;6.430;2022-09-02T01:22:16;0.90;;;0.90;;
19285;SDS011;9776;50.798;6.430;2022-09-02T01:24:44;1.00;;;1.00;;
19285;SDS011;9776;50.798;6.430;2022-09-02T01:27:12;1.20;;;1.20;;
19285;SDS011;9776;50.798;6.430;2022-09-02T01:29:41;1.50;;;1.40;;
19285;SDS011;9776;50.798;6.430;2022-09-02T01:32:07;1.30;;;1.20;;
19285;SDS011;9776;50.798;6.430;2022-09-02T01:34:34;1.40;;;1.30;;
19285;SDS011;9776;50.798;6.430;2022-09-02T01:37:01;1.00;;;1.00;;
19285;SDS011;9776;50.798;6.430;2022-09-02T01:39:29;1.10;;;1.10;;
19285;SDS011;9776;50.798;6.430;2022-09-02T01:41:55;1.30;;;1.20;;
19285;SDS011;9776;50.798;6.430;2022-09-02T01:44:22;1.20;;;1.10;;
19285;SDS011;9776;50.798;6.430;2022-09-02T01:46:51;0.95;;;0.95;;
19285;SDS011;9776;50.798;6.430;2022-09-02T01:49:19;1.70;;;1.40;;
19285;SDS011;9776;50.798;6.430;2022-09-02T01:51:46;2.05;;;1.20;;
19285;SDS011;9776;50.798;6.430;2022-09-02T01:54:13;1.23;;;1.13;;
19285;SDS011;9776;50.798;6.430;2022-09-02T01:56:41;1.48;;;0.98;;
19285;SDS011;9776;50.798;6.430;2022-09-02T01:59:08;1.08;;;1.08;;
19285;SDS011;9776;50.798;6.430;2022-09-02T02:01:37;1.13;;;1.13;;
19285;SDS011;9776;50.798;6.430;2022-09-02T02:04:04;1.30;;;1.30;;
19285;SDS011;9776;50.798;6.430;2022-09-02T02:06:30;1.20;;;1.20;;
19285;SDS011;9776;50.798;6.430;2022-09-02T02:08:57;1.02;;;1.00;;
19285;SDS011;9776;50.798;6.430;2022-09-02T02:11:23;1.17;;;1.10;;
19285;SDS011;9776;50.798;6.430;2022-09-02T02:13:52;1.02;;;1.02;;
19285;SDS011;9776;50.798;6.430;2022-09-02T02:16:18;0.95;;;0.95;;
19285;SDS011;9776;50.798;6.430;2022-09-02T02:18:45;1.25;;;1.15;;
19285;SDS011;9776;50.798;6.430;2022-09-02T02:21:12;1.00;;;1.00;;
19285;SDS011;9776;50.798;6.430;2022-09-02T02:23:39;1.20;;;1.20;;
19285;SDS011;9776;50.798;6.430;2022-09-02T02:26:05;0.93;;;0.93;;
19285;SDS011;9776;50.798;6.430;2022-09-02T02:28:32;1.25;;;1.15;;
19285;SDS011;9776;50.798;6.430;2022-09-02T02:31:00;1.20;;;1.20;;
19285;SDS011;9776;50.798;6.430;2022-09-02T02:33:27;1.02;;;1.02;;
19285;SDS011;9776;50.798;6.430;2022-09-02T02:35:54;1.10;;;1.10;;
19285;SDS011;9776;50.798;6.430;2022-09-02T02:38:21;1.00;;;1.00;;
19285;SDS011;9776;50.798;6.430;2022-09-02T02:40:48;1.25;;;1.15;;
19285;SDS011;9776;50.798;6.430;2022-09-02T02:43:15;1.45;;;1.13;;
19285;SDS011;9776;50.798;6.430;2022-09-02T02:45:42;1.17;;;1.08;;
19285;SDS011;9776;50.798;6.430;2022-09-02T02:48:10;1.20;;;1.20;;
19285;SDS011;9776;50.798;6.430;2022-09-02T02:50:37;1.20;;;1.10;;
19285;SDS011;9776;50.798;6.430;2022-09-02T02:53:05;1.40;;;1.30;;
19285;SDS011;9776;50.798;6.430;2022-09-02T02:55:32;1.27;;;1.17;;
19285;SDS011;9776;50.798;6.430;2022-09-02T02:57:58;1.45;;;1.35;;
19285;SDS011;9776;50.798;6.430;2022-09-02T03:00:26;1.27;;;1.10;;
19285;SDS011;9776;50.798;6.430;2022-09-02T03:02:55;1.15;;;1.15;;
19285;SDS011;9776;50.798;6.430;2022-09-02T03:05:23;1.13;;;1.02;;
19285;SDS011;9776;50.798;6.430;2022-09-02T03:07:51;1.30;;;1.30;;
19285;SDS011;9776;50.798;6.430;2022-09-02T03:10:17;1.10;;;1.10;;
19285;SDS011;9776;50.798;6.430;2022-09-02T03:12:45;1.00;;;1.00;;
19285;SDS011;9776;50.798;6.430;2022-09-02T03:15:13;1.13;;;1.13;;
19285;SDS011;9776;50.798;6.430;2022-09-02T03:17:42;1.25;;;1.20;;
19285;SDS011;9776;50.798;6.430;2022-09-02T03:20:09;1.10;;;1.10;;
19285;SDS011;9776;50.798;6.430;2022-09-02T03:22:37;1.27;;;1.17;;
19285;SDS011;9776;50.798;6.430;2022-09-02T03:25:05;1.10;;;1.10;;
19285;SDS011;9776;50.798;6.430;2022-09-02T03:27:32;1.30;;;1.20;;
19285;SDS011;9776;50.798;6.430;2022-09-02T03:29:59;1.10;;;1.10;;
19285;SDS011;9776;50.798;6.430;2022-09-02T03:32:26;1.67;;;1.23;;
19285;SDS011;9776;50.798;6.430;2022-09-02T03:34:53;1.08;;;1.08;;
19285;SDS011;9776;50.798;6.430;2022-09-02T03:37:19;1.30;;;1.15;;
19285;SDS011;9776;50.798;6.430;2022-09-02T03:39:47;0.93;;;0.93;;
19285;SDS011;9776;50.798;6.430;2022-09-02T03:42:14;1.50;;;1.40;;
19285;SDS011;9776;50.798;6.430;2022-09-02T03:44:41;1.40;;;1.15;;
19285;SDS011;9776;50.798;6.430;2022-09-02T03:47:08;1.15;;;1.15;;
19285;SDS011;9776;50.798;6.430;2022-09-02T03:49:34;1.50;;;1.05;;
19285;SDS011;9776;50.798;6.430;2022-09-02T03:52:01;1.00;;;1.00;;
19285;SDS011;9776;50.798;6.430;2022-09-02T03:54:28;1.25;;;1.25;;
19285;SDS011;9776;50.798;6.430;2022-09-02T03:56:56;1.00;;;1.00;;
19285;SDS011;9776;50.798;6.430;2022-09-02T03:59:23;1.00;;;1.00;;
19285;SDS011;9776;50.798;6.430;2022-09-02T04:01:50;0.82;;;0.82;;
19285;SDS011;9776;50.798;6.430;2022-09-02T04:04:17;1.00;;;1.00;;
19285;SDS011;9776;50.798;6.430;2022-09-02T04:06:44;1.20;;;1.20;;
19285;SDS011;9776;50.798;6.430;2022-09-02T04:09:11;1.13;;;1.13;;
19285;SDS011;9776;50.798;6.430;2022-09-02T04:11:37;1.10;;;1.05;;
19285;SDS011;9776;50.798;6.430;2022-09-02T04:14:08;1.45;;;1.20;;
19285;SDS011;9776;50.798;6.430;2022-09-02T04:23:20;1.20;;;1.10;;
19285;SDS011;9776;50.798;6.430;2022-09-02T04:25:46;1.13;;;1.02;;
19285;SDS011;9776;50.798;6.430;2022-09-02T04:28:13;0.98;;;0.98;;
19285;SDS011;9776;50.798;6.430;2022-09-02T04:30:41;1.08;;;1.02;;
19285;SDS011;9776;50.798;6.430;2022-09-02T04:33:08;1.08;;;1.08;;
19285;SDS011;9776;50.798;6.430;2022-09-02T04:35:38;1.10;;;1.10;;
19285;SDS011;9776;50.798;6.430;2022-09-02T04:38:05;1.35;;;1.30;;
19285;SDS011;9776;50.798;6.430;2022-09-02T04:40:32;1.30;;;1.00;;
19285;SDS011;9776;50.798;6.430;2022-09-02T04:42:58;1.25;;;1.20;;
19285;SDS011;9776;50.798;6.430;2022-09-02T04:45:28;1.25;;;1.25;;
19285;SDS011;9776;50.798;6.430;2022-09-02T04:47:56;1.40;;;1.10;;
19285;SDS011;9776;50.798;6.430;2022-09-02T04:50:23;1.30;;;1.20;;
19285;SDS011;9776;50.798;6.430;2022-09-02T04:52:50;1.17;;;1.10;;
19285;SDS011;9776;50.798;6.430;2022-09-02T04:55:16;1.33;;;1.33;;
19285;SDS011;9776;50.798;6.430;2022-09-02T04:57:44;1.05;;;1.05;;
19285;SDS011;9776;50.798;6.430;2022-09-02T05:00:11;1.25;;;1.17;;
19285;SDS011;9776;50.798;6.430;2022-09-02T05:02:38;1.50;;;1.40;;
19285;SDS011;9776;50.798;6.430;2022-09-02T05:05:07;1.20;;;1.10;;
19285;SDS011;9776;50.798;6.430;2022-09-02T05:07:35;1.30;;;1.30;;
19285;SDS011;9776;50.798;6.430;2022-09-02T05:10:02;1.40;;;1.30;;
19285;SDS011;9776;50.798;6.430;2022-09-02T05:12:30;1.27;;;1.23;;
19285;SDS011;9776;50.798;6.430;2022-09-02T05:14:57;1.13;;;1.13;;
19285;SDS011;9776;50.798;6.430;2022-09-02T05:17:25;1.08;;;1.08;;
19285;SDS011;9776;50.798;6.430;2022-09-02T05:19:51;1.55;;;1.30;;
19285;SDS011;9776;50.798;6.430;2022-09-02T05:22:20;1.52;;;1.42;;
19285;SDS011;9776;50.798;6.430;2022-09-02T05:24:47;1.48;;;1.38;;
19285;SDS011;9776;50.798;6.430;2022-09-02T05:27:14;1.25;;;1.15;;
19285;SDS011;9776;50.798;6.430;2022-09-02T05:29:41;1.30;;;1.20;;
19285;SDS011;9776;50.798;6.430;2022-09-02T05:32:08;1.15;;;1.13;;
19285;SDS011;9776;50.798;6.430;2022-09-02T05:34:35;1.30;;;1.30;;
19285;SDS011;9776;50.798;6.430;2022-09-02T05:37:02;1.40;;;1.40;;
19285;SDS011;9776;50.798;6.430;2022-09-02T05:39:33;1.30;;;1.30;;
19285;SDS011;9776;50.798;6.430;2022-09-02T05:42:00;1.88;;;1.55;;
19285;SDS011;9776;50.798;6.430;2022-09-02T05:44:27;1.52;;;1.42;;
19285;SDS011;9776;50.798;6.430;2022-09-02T05:46:55;2.28;;;1.42;;
19285;SDS011;9776;50.798;6.430;2022-09-02T05:49:22;1.40;;;1.30;;
19285;SDS011;9776;50.798;6.430;2022-09-02T05:51:50;2.00;;;1.50;;
19285;SDS011;9776;50.798;6.430;2022-09-02T05:54:19;1.95;;;1.75;;
19285;SDS011;9776;50.798;6.430;2022-09-02T05:56:49;1.65;;;1.55;;
19285;SDS011;9776;50.798;6.430;2022-09-02T05:59:18;1.75;;;1.65;;
19285;SDS011;9776;50.798;6.430;2022-09-02T06:01:45;1.73;;;1.60;;
19285;SDS011;9776;50.798;6.430;2022-09-02T06:04:12;1.50;;;1.40;;
19285;SDS011;9776;50.798;6.430;2022-09-02T06:06:40;1.50;;;1.40;;
19285;SDS011;9776;50.798;6.430;2022-09-02T06:09:07;1.67;;;1.58;;
19285;SDS011;9776;50.798;6.430;2022-09-02T06:11:36;1.65;;;1.55;;
19285;SDS011;9776;50.798;6.430;2022-09-02T06:14:11;1.60;;;1.50;;
19285;SDS011;9776;50.798;6.430;2022-09-02T06:16:38;1.60;;;1.50;;
19285;SDS011;9776;50.798;6.430;2022-09-02T06:19:06;1.00;;;1.00;;
19285;SDS011;9776;50.798;6.430;2022-09-02T06:21:32;1.15;;;1.10;;
19285;SDS011;9776;50.798;6.430;2022-09-02T06:24:03;1.20;;;1.20;;
19285;SDS011;9776;50.798;6.430;2022-09-02T06:26:30;1.20;;;1.10;;
19285;SDS011;9776;50.798;6.430;2022-09-02T06:28:56;1.20;;;1.15;;
19285;SDS011;9776;50.798;6.430;2022-09-02T06:31:25;1.20;;;1.10;;
19285;SDS011;9776;50.798;6.430;2022-09-02T06:33:52;1.40;;;1.30;;
19285;SDS011;9776;50.798;6.430;2022-09-02T06:36:21;1.33;;;1.23;;
19285;SDS011;9776;50.798;6.430;2022-09-02T06:38:50;1.38;;;1.33;;
19285;SDS011;9776;50.798;6.430;2022-09-02T06:41:20;1.23;;;1.23;;
19285;SDS011;9776;50.798;6.430;2022-09-02T06:43:51;1.20;;;1.20;;
19285;SDS011;9776;50.798;6.430;2022-09-02T06:46:21;1.35;;;1.35;;
19285;SDS011;9776;50.798;6.430;2022-09-02T06:48:50;1.42;;;1.33;;
19285;SDS011;9776;50.798;6.430;2022-09-02T06:51:17;1.20;;;1.20;;
19285;SDS011;9776;50.798;6.430;2022-09-02T06:53:45;1.17;;;1.10;;
19285;SDS011;9776;50.798;6.430;2022-09-02T06:56:12;1.00;;;1.00;;
19285;SDS011;9776;50.798;6.430;2022-09-02T06:58:39;1.20;;;1.20;;
19285;SDS011;9776;50.798;6.430;2022-09-02T07:01:06;1.10;;;1.10;;
19285;SDS011;9776;50.798;6.430;2022-09-02T07:03:33;1.95;;;1.00;;
19285;SDS011;9776;50.798;6.430;2022-09-02T07:06:19;1.20;;;1.20;;
19285;SDS011;9776;50.798;6.430;2022-09-02T07:08:46;1.27;;;1.17;;
19285;SDS011;9776;50.798;6.430;2022-09-02T07:11:14;1.20;;;1.10;;
19285;SDS011;9776;50.798;6.430;2022-09-02T07:13:43;1.08;;;1.08;;
19285;SDS011;9776;50.798;6.430;2022-09-02T07:16:10;1.13;;;1.10;;
19285;SDS011;9776;50.798;6.430;2022-09-02T07:18:37;1.60;;;1.50;;
19285;SDS011;9776;50.798;6.430;2022-09-02T07:21:03;1.10;;;1.10;;
19285;SDS011;9776;50.798;6.430;2022-09-02T07:23:34;1.13;;;1.13;;
19285;SDS011;9776;50.798;6.430;2022-09-02T07:26:01;0.90;;;0.90;;
19285;SDS011;9776;50.798;6.430;2022-09-02T07:28:28;0.80;;;0.80;;
19285;SDS011;9776;50.798;6.430;2022-09-02T07:30:55;1.27;;;1.17;;
19285;SDS011;9776;50.798;6.430;2022-09-02T07:33:21;1.00;;;1.00;;
19285;SDS011;9776;50.798;6.430;2022-09-02T07:35:49;1.10;;;1.00;;
19285;SDS011;9776;50.798;6.430;2022-09-02T07:38:17;2.88;;;0.93;;
19285;SDS011;9776;50.798;6.430;2022-09-02T07:40:45;1.15;;;1.05;;
19285;SDS011;9776;50.798;6.430;2022-09-02T07:43:12;1.08;;;1.08;;
19285;SDS011;9776;50.798;6.430;2022-09-02T07:45:39;1.30;;;1.20;;
19285;SDS011;9776;50.798;6.430;2022-09-02T07:48:07;1.20;;;1.10;;
19285;SDS011;9776;50.798;6.430;2022-09-02T07:50:34;1.05;;;1.00;;
19285;SDS011;9776;50.798;6.430;2022-09-02T07:53:02;1.63;;;1.13;;
19285;SDS011;9776;50.798;6.430;2022-09-02T07:55:31;0.93;;;0.90;;
19285;SDS011;9776;50.798;6.430;2022-09-02T07:58:02;1.27;;;1.17;;
19285;SDS011;9776;50.798;6.430;2022-09-02T08:00:29;2.03;;;0.90;;
19285;SDS011;9776;50.798;6.430;2022-09-02T08:02:56;1.10;;;0.98;;
19285;SDS011;9776;50.798;6.430;2022-09-02T08:05:24;2.15;;;0.90;;
19285;SDS011;9776;50.798;6.430;2022-09-02T08:07:51;0.68;;;0.68;;
19285;SDS011;9776;50.798;6.430;2022-09-02T08:10:18;0.95;;;0.88;;
19285;SDS011;9776;50.798;6.430;2022-09-02T08:12:45;0.90;;;0.90;;
19285;SDS011;9776;50.798;6.430;2022-09-02T08:15:14;0.77;;;0.77;;
19285;SDS011;9776;50.798;6.430;2022-09-02T08:17:41;0.70;;;0.70;;
19285;SDS011;9776;50.798;6.430;2022-09-02T08:20:08;1.80;;;1.00;;
19285;SDS011;9776;50.798;6.430;2022-09-02T08:22:37;0.85;;;0.85;;
19285;SDS011;9776;50.798;6.430;2022-09-02T08:25:04;0.90;;;0.90;;
19285;SDS011;9776;50.798;6.430;2022-09-02T08:27:31;1.20;;;1.08;;
19285;SDS011;9776;50.798;6.430;2022-09-02T08:29:58;0.85;;;0.85;;
19285;SDS011;9776;50.798;6.430;2022-09-02T08:32:27;2.97;;;0.85;;
19285;SDS011;9776;50.798;6.430;2022-09-02T08:34:57;0.93;;;0.93;;
19285;SDS011;9776;50.798;6.430;2022-09-02T08:37:26;0.80;;;0.80;;
19285;SDS011;9776;50.798;6.430;2022-09-02T08:39:53;0.82;;;0.80;;
19285;SDS011;9776;50.798;6.430;2022-09-02T08:42:21;0.73;;;0.73;;
19285;SDS011;9776;50.798;6.430;2022-09-02T08:44:50;1.45;;;0.90;;
19285;SDS011;9776;50.798;6.430;2022-09-02T08:47:24;1.20;;;0.73;;
19285;SDS011;9776;50.798;6.430;2022-09-02T08:49:56;0.63;;;0.63;;
19285;SDS011;9776;50.798;6.430;2022-09-02T08:52:27;0.75;;;0.75;;
19285;SDS011;9776;50.798;6.430;2022-09-02T08:54:59;0.70;;;0.70;;
19285;SDS011;9776;50.798;6.430;2022-09-02T08:57:26;0.60;;;0.60;;
19285;SDS011;9776;50.798;6.430;2022-09-02T08:59:55;0.80;;;0.80;;
19285;SDS011;9776;50.798;6.430;2022-09-02T09:02:28;1.30;;;0.70;;
19285;SDS011;9776;50.798;6.430;2022-09-02T09:05:10;0.68;;;0.68;;
19285;SDS011;9776;50.798;6.430;2022-09-02T09:07:54;1.02;;;0.80;;
19285;SDS011;9776;50.798;6.430;2022-09-02T09:10:30;1.33;;;0.70;;
19285;SDS011;9776;50.798;6.430;2022-09-02T09:13:19;0.60;;;0.60;;
19285;SDS011;9776;50.798;6.430;2022-09-02T09:16:06;0.60;;;0.60;;
19285;SDS011;9776;50.798;6.430;2022-09-02T09:18:44;0.60;;;0.60;;
19285;SDS011;9776;50.798;6.430;2022-09-02T09:21:18;1.35;;;0.63;;
19285;SDS011;9776;50.798;6.430;2022-09-02T09:23:45;0.60;;;0.60;;
19285;SDS011;9776;50.798;6.430;2022-09-02T09:26:15;0.60;;;0.60;;
19285;SDS011;9776;50.798;6.430;2022-09-02T09:28:47;0.50;;;0.50;;
19285;SDS011;9776;50.798;6.430;2022-09-02T09:31:16;0.50;;;0.50;;
19285;SDS011;9776;50.798;6.430;2022-09-02T09:33:56;0.73;;;0.60;;
19285;SDS011;9776;50.798;6.430;2022-09-02T09:39:17;1.40;;;0.60;;
19285;SDS011;9776;50.798;6.430;2022-09-02T09:41:49;0.60;;;0.60;;
19285;SDS011;9776;50.798;6.430;2022-09-02T09:47:03;0.82;;;0.60;;
19285;SDS011;9776;50.798;6.430;2022-09-02T09:49:34;0.60;;;0.57;;
19285;SDS011;9776;50.798;6.430;2022-09-02T09:52:01;1.75;;;0.60;;
19285;SDS011;9776;50.798;6.430;2022-09-02T09:54:28;1.55;;;0.60;;
19285;SDS011;9776;50.798;6.430;2022-09-02T09:56:55;0.98;;;0.60;;
19285;SDS011;9776;50.798;6.430;2022-09-02T09:59:40;1.75;;;0.70;;
19285;SDS011;9776;50.798;6.430;2022-09-02T10:02:21;0.60;;;0.60;;
19285;SDS011;9776;50.798;6.430;2022-09-02T10:04:50;0.68;;;0.68;;
19285;SDS011;9776;50.798;6.430;2022-09-02T10:07:33;0.80;;;0.80;;
19285;SDS011;9776;50.798;6.430;2022-09-02T10:10:11;0.70;;;0.70;;
19285;SDS011;9776;50.798;6.430;2022-09-02T10:12:41;0.70;;;0.70;;
19285;SDS011;9776;50.798;6.430;2022-09-02T10:15:09;0.77;;;0.77;;
19285;SDS011;9776;50.798;6.430;2022-09-02T10:17:36;0.70;;;0.70;;
19285;SDS011;9776;50.798;6.430;2022-09-02T10:20:15;0.57;;;0.57;;
19285;SDS011;9776;50.798;6.430;2022-09-02T10:25:47;0.77;;;0.77;;
19285;SDS011;9776;50.798;6.430;2022-09-02T10:28:30;0.88;;;0.88;;
19285;SDS011;9776;50.798;6.430;2022-09-02T10:31:10;0.70;;;0.70;;
19285;SDS011;9776;50.798;6.430;2022-09-02T10:33:44;0.70;;;0.70;;
19285;SDS011;9776;50.798;6.430;2022-09-02T10:36:19;0.70;;;0.70;;
19285;SDS011;9776;50.798;6.430;2022-09-02T10:38:52;1.85;;;0.80;;
19285;SDS011;9776;50.798;6.430;2022-09-02T10:41:31;0.60;;;0.60;;
19285;SDS011;9776;50.798;6.430;2022-09-02T10:44:09;1.23;;;0.80;;
19285;SDS011;9776;50.798;6.430;2022-09-02T10:46:51;1.40;;;0.90;;
19285;SDS011;9776;50.798;6.430;2022-09-02T10:49:28;0.75;;;0.75;;
19285;SDS011;9776;50.798;6.430;2022-09-02T10:52:09;0.70;;;0.70;;
19285;SDS011;9776;50.798;6.430;2022-09-02T10:54:43;2.15;;;0.60;;
19285;SDS011;9776;50.798;6.430;2022-09-02T10:57:18;1.20;;;0.50;;
19285;SDS011;9776;50.798;6.430;2022-09-02T10:59:50;0.63;;;0.50;;
19285;SDS011;9776;50.798;6.430;2022-09-02T11:02:27;0.57;;;0.50;;
19285;SDS011;9776;50.798;6.430;2022-09-02T11:05:01;0.45;;;0.45;;
19285;SDS011;9776;50.798;6.430;2022-09-02T11:07:35;0.63;;;0.40;;
19285;SDS011;9776;50.798;6.430;2022-09-02T11:10:08;0.70;;;0.60;;
19285;SDS011;9776;50.798;6.430;2022-09-02T11:12:44;0.50;;;0.50;;
19285;SDS011;9776;50.798;6.430;2022-09-02T11:15:18;0.40;;;0.40;;
19285;SDS011;9776;50.798;6.430;2022-09-02T11:17:50;0.40;;;0.40;;
19285;SDS011;9776;50.798;6.430;2022-09-02T11:20:27;0.60;;;0.40;;
19285;SDS011;9776;50.798;6.430;2022-09-02T11:23:00;0.40;;;0.40;;
19285;SDS011;9776;50.798;6.430;2022-09-02T11:25:33;0.40;;;0.40;;
19285;SDS011;9776;50.798;6.430;2022-09-02T11:28:10;0.40;;;0.40;;
19285;SDS011;9776;50.798;6.430;2022-09-02T11:30:50;0.40;;;0.40;;
19285;SDS011;9776;50.798;6.430;2022-09-02T11:33:24;0.50;;;0.50;;
19285;SDS011;9776;50.798;6.430;2022-09-02T11:35:56;0.40;;;0.32;;
19285;SDS011;9776;50.798;6.430;2022-09-02T11:38:30;0.40;;;0.40;;
19285;SDS011;9776;50.798;6.430;2022-09-02T11:41:05;1.20;;;0.50;;
19285;SDS011;9776;50.798;6.430;2022-09-02T11:43:47;0.50;;;0.50;;
19285;SDS011;9776;50.798;6.430;2022-09-02T11:46:24;0.40;;;0.40;;
19285;SDS011;9776;50.798;6.430;2022-09-02T11:49:32;0.60;;;0.40;;
19285;SDS011;9776;50.798;6.430;2022-09-02T11:52:27;0.50;;;0.50;;
19285;SDS011;9776;50.798;6.430;2022-09-02T11:55:07;0.57;;;0.57;;
19285;SDS011;9776;50.798;6.430;2022-09-02T11:57:40;0.40;;;0.40;;
19285;SDS011;9776;50.798;6.430;2022-09-02T12:00:10;0.70;;;0.50;;
19285;SDS011;9776;50.798;6.430;2022-09-02T12:02:50;0.88;;;0.45;;
19285;SDS011;9776;50.798;6.430;2022-09-02T12:08:10;0.85;;;0.60;;
19285;SDS011;9776;50.798;6.430;2022-09-02T12:10:59;0.47;;;0.47;;
19285;SDS011;9776;50.798;6.430;2022-09-02T12:13:33;0.50;;;0.50;;
19285;SDS011;9776;50.798;6.430;2022-09-02T12:22:23;0.88;;;0.50;;
19285;SDS011;9776;50.798;6.430;2022-09-02T12:24:53;0.40;;;0.40;;
19285;SDS011;9776;50.798;6.430;2022-09-02T12:27:26;0.45;;;0.45;;
19285;SDS011;9776;50.798;6.430;2022-09-02T12:29:55;0.40;;;0.40;;
19285;SDS011;9776;50.798;6.430;2022-09-02T12:35:28;0.70;;;0.47;;
19285;SDS011;9776;50.798;6.430;2022-09-02T12:43:59;0.55;;;0.50;;
19285;SDS011;9776;50.798;6.430;2022-09-02T12:46:42;0.68;;;0.40;;
19285;SDS011;9776;50.798;6.430;2022-09-02T12:49:22;0.50;;;0.50;;
19285;SDS011;9776;50.798;6.430;2022-09-02T12:51:59;0.50;;;0.50;;
19285;SDS011;9776;50.798;6.430;2022-09-02T12:54:30;0.77;;;0.43;;
19285;SDS011;9776;50.798;6.430;2022-09-02T12:57:02;0.55;;;0.55;;
19285;SDS011;9776;50.798;6.430;2022-09-02T12:59:31;0.40;;;0.40;;
19285;SDS011;9776;50.798;6.430;2022-09-02T13:02:09;0.40;;;0.40;;
19285;SDS011;9776;50.798;6.430;2022-09-02T13:04:45;0.50;;;0.50;;
19285;SDS011;9776;50.798;6.430;2022-09-02T13:10:32;0.40;;;0.40;;
19285;SDS011;9776;50.798;6.430;2022-09-02T13:13:17;0.43;;;0.43;;
19285;SDS011;9776;50.798;6.430;2022-09-02T13:16:21;0.50;;;0.50;;
19285;SDS011;9776;50.798;6.430;2022-09-02T13:19:12;0.60;;;0.60;;
19285;SDS011;9776;50.798;6.430;2022-09-02T13:22:01;0.60;;;0.60;;
19285;SDS011;9776;50.798;6.430;2022-09-02T13:24:52;0.75;;;0.75;;
19285;SDS011;9776;50.798;6.430;2022-09-02T13:30:36;0.73;;;0.63;;
19285;SDS011;9776;50.798;6.430;2022-09-02T13:33:19;0.57;;;0.57;;
19285;SDS011;9776;50.798;6.430;2022-09-02T13:35:51;0.60;;;0.60;;
19285;SDS011;9776;50.798;6.430;2022-09-02T13:38:21;0.80;;;0.68;;
19285;SDS011;9776;50.798;6.430;2022-09-02T13:40:49;0.70;;;0.70;;
19285;SDS011;9776;50.798;6.430;2022-09-02T13:43:17;0.70;;;0.70;;
19285;SDS011;9776;50.798;6.430;2022-09-02T13:45:45;0.70;;;0.70;;
19285;SDS011;9776;50.798;6.430;2022-09-02T13:48:14;0.88;;;0.88;;
19285;SDS011;9776;50.798;6.430;2022-09-02T13:50:44;1.05;;;0.88;;
19285;SDS011;9776;50.798;6.430;2022-09-02T13:53:12;1.75;;;0.80;;
19285;SDS011;9776;50.798;6.430;2022-09-02T13:55:46;0.82;;;0.68;;
19285;SDS011;9776;50.798;6.430;2022-09-02T13:58:19;0.70;;;0.70;;
19285;SDS011;9776;50.798;6.430;2022-09-02T14:00:51;0.77;;;0.70;;
19285;SDS011;9776;50.798;6.430;2022-09-02T14:03:18;0.73;;;0.73;;
19285;SDS011;9776;50.798;6.430;2022-09-02T14:05:48;0.75;;;0.75;;
19285;SDS011;9776;50.798;6.430;2022-09-02T14:08:17;0.75;;;0.75;;
19285;SDS011;9776;50.798;6.430;2022-09-02T14:10:47;0.70;;;0.70;;
19285;SDS011;9776;50.798;6.430;2022-09-02T14:13:16;1.67;;;0.70;;
19285;SDS011;9776;50.798;6.430;2022-09-02T14:15:43;0.63;;;0.63;;
19285;SDS011;9776;50.798;6.430;2022-09-02T14:18:14;2.35;;;0.90;;
19285;SDS011;9776;50.798;6.430;2022-09-02T14:20:54;1.95;;;0.90;;
19285;SDS011;9776;50.798;6.430;2022-09-02T14:23:23;0.77;;;0.77;;
19285;SDS011;9776;50.798;6.430;2022-09-02T14:25:51;0.90;;;0.90;;
19285;SDS011;9776;50.798;6.430;2022-09-02T14:28:20;0.77;;;0.77;;
19285;SDS011;9776;50.798;6.430;2022-09-02T14:30:59;0.88;;;0.88;;
19285;SDS011;9776;50.798;6.430;2022-09-02T14:33:38;0.77;;;0.70;;
19285;SDS011;9776;50.798;6.430;2022-09-02T14:36:08;0.80;;;0.80;;
19285;SDS011;9776;50.798;6.430;2022-09-02T14:38:48;2.25;;;1.00;;
19285;SDS011;9776;50.798;6.430;2022-09-02T14:41:21;0.70;;;0.70;;
19285;SDS011;9776;50.798;6.430;2022-09-02T14:43:49;1.20;;;0.90;;
19285;SDS011;9776;50.798;6.430;2022-09-02T14:46:22;0.90;;;0.90;;
19285;SDS011;9776;50.798;6.430;2022-09-02T14:48:53;1.10;;;1.10;;
19285;SDS011;9776;50.798;6.430;2022-09-02T14:51:27;1.30;;;1.20;;
19285;SDS011;9776;50.798;6.430;2022-09-02T14:54:00;1.05;;;1.05;;
19285;SDS011;9776;50.798;6.430;2022-09-02T14:56:43;1.17;;;1.17;;
19285;SDS011;9776;50.798;6.430;2022-09-02T14:59:12;1.23;;;1.23;;
19285;SDS011;9776;50.798;6.430;2022-09-02T15:01:39;1.48;;;1.45;;
19285;SDS011;9776;50.798;6.430;2022-09-02T15:04:07;1.10;;;1.10;;
19285;SDS011;9776;50.798;6.430;2022-09-02T15:06:36;1.63;;;1.52;;
19285;SDS011;9776;50.798;6.430;2022-09-02T15:09:03;1.23;;;1.23;;
19285;SDS011;9776;50.798;6.430;2022-09-02T15:11:30;1.55;;;1.45;;
19285;SDS011;9776;50.798;6.430;2022-09-02T15:13:57;1.55;;;1.45;;
19285;SDS011;9776;50.798;6.430;2022-09-02T15:16:23;1.38;;;1.30;;
19285;SDS011;9776;50.798;6.430;2022-09-02T15:18:50;1.25;;;1.25;;
19285;SDS011;9776;50.798;6.430;2022-09-02T15:21:17;1.35;;;1.30;;
19285;SDS011;9776;50.798;6.430;2022-09-02T15:23:45;1.30;;;1.30;;
19285;SDS011;9776;50.798;6.430;2022-09-02T15:26:11;1.17;;;1.08;;
19285;SDS011;9776;50.798;6.430;2022-09-02T15:28:38;1.25;;;1.15;;
19285;SDS011;9776;50.798;6.430;2022-09-02T15:31:06;1.00;;;1.00;;
19285;SDS011;9776;50.798;6.430;2022-09-02T15:33:33;1.40;;;1.05;;
19285;SDS011;9776;50.798;6.430;2022-09-02T15:36:05;1.65;;;1.00;;
19285;SDS011;9776;50.798;6.430;2022-09-02T15:38:34;0.82;;;0.82;;
19285;SDS011;9776;50.798;6.430;2022-09-02T15:41:13;1.10;;;0.77;;
19285;SDS011;9776;50.798;6.430;2022-09-02T15:43:41;1.08;;;0.98;;
19285;SDS011;9776;50.798;6.430;2022-09-02T15:46:15;0.90;;;0.90;;
19285;SDS011;9776;50.798;6.430;2022-09-02T15:48:44;1.83;;;0.93;;
19285;SDS011;9776;50.798;6.430;2022-09-02T15:51:11;0.70;;;0.70;;
19285;SDS011;9776;50.798;6.430;2022-09-02T15:53:38;0.80;;;0.73;;
19285;SDS011;9776;50.798;6.430;2022-09-02T15:56:08;0.90;;;0.90;;
19285;SDS011;9776;50.798;6.430;2022-09-02T15:58:42;0.82;;;0.77;;